sensor_id;sensor_type;location;lat;lon;timestamp;pressure;altitude;pressure_sealevel;temperature;humidity
59787;BME280;45672;51.612;5.536;2023-05-27T00:00:00;102731.91;;;10.84;70.41
59787;BME280;45672;51.612;5.536;2023-05-27T00:02:26;102732.88;;;10.83;69.99
59787;BME280;45672;51.612;5.536;2023-05-27T00:04:51;102721.38;;;10.82;70.01
59787;BME280;45672;51.612;5.536;2023-05-27T00:07:17;102727.47;;;10.72;70.47
59787;BME280;45672;51.612;5.536;2023-05-27T00:09:42;102723.34;;;10.67;70.74
59787;BME280;45672;51.612;5.536;2023-05-27T00:12:07;102727.81;;;10.67;71.04
59787;BME280;45672;51.612;5.536;2023-05-27T00:14:33;102727.81;;;10.67;70.88
59787;BME280;45672;51.612;5.536;2023-05-27T00:16:58;102718.78;;;10.57;71.14
59787;BME280;45672;51.612;5.536;2023-05-27T00:19:24;102725.50;;;10.49;71.91
59787;BME280;45672;51.612;5.536;2023-05-27T00:21:50;102717.63;;;10.48;71.90
59787;BME280;45672;51.612;5.536;2023-05-27T00:24:17;102716.13;;;10.44;72.07
59787;BME280;45672;51.612;5.536;2023-05-27T00:26:43;102719.13;;;10.39;72.47
59787;BME280;45672;51.612;5.536;2023-05-27T00:29:08;102716.66;;;10.36;72.45
59787;BME280;45672;51.612;5.536;2023-05-27T00:31:34;102713.16;;;10.35;72.14
59787;BME280;45672;51.612;5.536;2023-05-27T00:33:59;102709.50;;;10.24;73.04
59787;BME280;45672;51.612;5.536;2023-05-27T00:36:24;102705.34;;;10.20;73.28
59787;BME280;45672;51.612;5.536;2023-05-27T00:38:50;102697.16;;;10.23;72.98
59787;BME280;45672;51.612;5.536;2023-05-27T00:41:15;102709.19;;;10.15;73.25
59787;BME280;45672;51.612;5.536;2023-05-27T00:43:40;102706.97;;;10.09;73.70
59787;BME280;45672;51.612;5.536;2023-05-27T00:46:06;102713.34;;;10.07;73.90
59787;BME280;45672;51.612;5.536;2023-05-27T00:48:31;102712.28;;;10.09;73.98
59787;BME280;45672;51.612;5.536;2023-05-27T00:50:57;102709.81;;;10.06;74.35
59787;BME280;45672;51.612;5.536;2023-05-27T00:53:23;102706.63;;;10.01;74.62
59787;BME280;45672;51.612;5.536;2023-05-27T00:55:52;102714.19;;;10.07;74.87
59787;BME280;45672;51.612;5.536;2023-05-27T00:58:18;102704.69;;;10.03;74.83
59787;BME280;45672;51.612;5.536;2023-05-27T01:00:46;102698.66;;;10.01;74.88
59787;BME280;45672;51.612;5.536;2023-05-27T01:03:11;102701.22;;;10.03;75.08
59787;BME280;45672;51.612;5.536;2023-05-27T01:05:37;102694.28;;;10.00;75.07
59787;BME280;45672;51.612;5.536;2023-05-27T01:08:37;102696.31;;;10.09;73.71
59787;BME280;45672;51.612;5.536;2023-05-27T01:11:07;102685.13;;;9.78;75.84
59787;BME280;45672;51.612;5.536;2023-05-27T01:13:40;102698.19;;;9.81;76.18
59787;BME280;45672;51.612;5.536;2023-05-27T01:16:11;102696.38;;;9.82;76.41
59787;BME280;45672;51.612;5.536;2023-05-27T01:18:37;102698.19;;;9.81;76.61
59787;BME280;45672;51.612;5.536;2023-05-27T01:21:07;102690.66;;;9.75;76.85
59787;BME280;45672;51.612;5.536;2023-05-27T01:23:35;102686.28;;;9.74;76.90
59787;BME280;45672;51.612;5.536;2023-05-27T01:26:04;102693.41;;;9.74;77.41
59787;BME280;45672;51.612;5.536;2023-05-27T01:28:29;102690.88;;;9.72;77.29
59787;BME280;45672;51.612;5.536;2023-05-27T01:30:59;102695.41;;;9.70;77.89
59787;BME280;45672;51.612;5.536;2023-05-27T01:33:27;102693.56;;;9.58;78.35
59787;BME280;45672;51.612;5.536;2023-05-27T01:36:01;102691.91;;;9.57;78.54
59787;BME280;45672;51.612;5.536;2023-05-27T01:38:28;102684.88;;;9.56;78.39
59787;BME280;45672;51.612;5.536;2023-05-27T01:40:56;102678.72;;;9.55;78.64
59787;BME280;45672;51.612;5.536;2023-05-27T01:43:22;102686.59;;;9.57;78.33
59787;BME280;45672;51.612;5.536;2023-05-27T01:45:47;102681.38;;;9.55;78.78
59787;BME280;45672;51.612;5.536;2023-05-27T01:48:13;102680.59;;;9.53;78.89
59787;BME280;45672;51.612;5.536;2023-05-27T01:50:38;102674.78;;;9.48;78.97
59787;BME280;45672;51.612;5.536;2023-05-27T01:53:05;102680.16;;;9.46;78.98
59787;BME280;45672;51.612;5.536;2023-05-27T01:55:30;102684.00;;;9.42;79.38
59787;BME280;45672;51.612;5.536;2023-05-27T01:57:56;102673.56;;;9.39;79.69
59787;BME280;45672;51.612;5.536;2023-05-27T02:00:22;102671.41;;;9.31;80.18
59787;BME280;45672;51.612;5.536;2023-05-27T02:02:48;102669.25;;;9.24;80.32
59787;BME280;45672;51.612;5.536;2023-05-27T02:05:13;102669.47;;;9.21;80.41
59787;BME280;45672;51.612;5.536;2023-05-27T02:07:39;102673.81;;;9.22;80.49
59787;BME280;45672;51.612;5.536;2023-05-27T02:10:04;102682.00;;;9.19;81.02
59787;BME280;45672;51.612;5.536;2023-05-27T02:12:30;102679.13;;;9.22;80.74
59787;BME280;45672;51.612;5.536;2023-05-27T02:14:55;102674.44;;;9.12;80.81
59787;BME280;45672;51.612;5.536;2023-05-27T02:17:20;102672.06;;;9.08;81.63
59787;BME280;45672;51.612;5.536;2023-05-27T02:19:46;102667.72;;;9.07;81.81
59787;BME280;45672;51.612;5.536;2023-05-27T02:22:11;102680.91;;;9.08;81.84
59787;BME280;45672;51.612;5.536;2023-05-27T02:24:36;102672.38;;;9.03;82.12
59787;BME280;45672;51.612;5.536;2023-05-27T02:27:02;102666.41;;;9.00;81.87
59787;BME280;45672;51.612;5.536;2023-05-27T02:29:27;102660.44;;;8.96;82.07
59787;BME280;45672;51.612;5.536;2023-05-27T02:31:52;102675.63;;;8.94;82.23
59787;BME280;45672;51.612;5.536;2023-05-27T02:34:18;102681.59;;;8.97;82.58
59787;BME280;45672;51.612;5.536;2023-05-27T02:36:43;102675.53;;;8.95;82.66
59787;BME280;45672;51.612;5.536;2023-05-27T02:39:09;102676.47;;;8.94;82.98
59787;BME280;45672;51.612;5.536;2023-05-27T02:41:35;102682.09;;;8.90;83.36
59787;BME280;45672;51.612;5.536;2023-05-27T02:44:00;102671.66;;;8.87;83.51
59787;BME280;45672;51.612;5.536;2023-05-27T02:46:26;102678.88;;;8.85;83.57
59787;BME280;45672;51.612;5.536;2023-05-27T02:48:51;102682.28;;;8.87;83.74
59787;BME280;45672;51.612;5.536;2023-05-27T02:51:16;102682.56;;;8.82;83.97
59787;BME280;45672;51.612;5.536;2023-05-27T02:53:41;102682.69;;;8.80;83.83
59787;BME280;45672;51.612;5.536;2023-05-27T02:56:07;102681.16;;;8.76;84.26
59787;BME280;45672;51.612;5.536;2023-05-27T02:58:32;102693.78;;;8.73;84.50
59787;BME280;45672;51.612;5.536;2023-05-27T03:00:58;102685.84;;;8.73;84.59
59787;BME280;45672;51.612;5.536;2023-05-27T03:03:23;102687.41;;;8.75;84.47
59787;BME280;45672;51.612;5.536;2023-05-27T03:05:49;102683.28;;;8.71;85.03
59787;BME280;45672;51.612;5.536;2023-05-27T03:08:15;102681.75;;;8.67;85.09
59787;BME280;45672;51.612;5.536;2023-05-27T03:10:40;102698.44;;;8.69;84.73
59787;BME280;45672;51.612;5.536;2023-05-27T03:13:05;102696.63;;;8.70;85.08
59787;BME280;45672;51.612;5.536;2023-05-27T03:15:31;102699.03;;;8.60;85.61
59787;BME280;45672;51.612;5.536;2023-05-27T03:17:57;102683.00;;;8.61;85.73
59787;BME280;45672;51.612;5.536;2023-05-27T03:20:22;102700.50;;;8.64;85.44
59787;BME280;45672;51.612;5.536;2023-05-27T03:22:48;102694.56;;;8.60;85.65
59787;BME280;45672;51.612;5.536;2023-05-27T03:25:13;102694.25;;;8.65;85.52
59787;BME280;45672;51.612;5.536;2023-05-27T03:27:39;102687.53;;;8.59;85.91
59787;BME280;45672;51.612;5.536;2023-05-27T03:30:06;102686.03;;;8.55;86.56
59787;BME280;45672;51.612;5.536;2023-05-27T03:32:32;102679.69;;;8.58;86.61
59787;BME280;45672;51.612;5.536;2023-05-27T03:34:58;102682.44;;;8.56;86.36
59787;BME280;45672;51.612;5.536;2023-05-27T03:37:23;102681.59;;;8.56;86.67
59787;BME280;45672;51.612;5.536;2023-05-27T03:39:48;102673.06;;;8.51;86.83
59787;BME280;45672;51.612;5.536;2023-05-27T03:42:14;102667.84;;;8.49;86.73
59787;BME280;45672;51.612;5.536;2023-05-27T03:44:39;102671.53;;;8.47;87.31
59787;BME280;45672;51.612;5.536;2023-05-27T03:47:05;102677.00;;;8.43;87.32
59787;BME280;45672;51.612;5.536;2023-05-27T03:49:30;102670.19;;;8.39;87.49
59787;BME280;45672;51.612;5.536;2023-05-27T03:51:56;102656.81;;;8.41;87.41
59787;BME280;45672;51.612;5.536;2023-05-27T03:54:21;102659.38;;;8.42;87.68
59787;BME280;45672;51.612;5.536;2023-05-27T03:56:46;102663.06;;;8.40;87.87
59787;BME280;45672;51.612;5.536;2023-05-27T03:59:12;102660.19;;;8.44;87.45
59787;BME280;45672;51.612;5.536;2023-05-27T04:01:38;102655.97;;;8.40;88.06
59787;BME280;45672;51.612;5.536;2023-05-27T04:04:04;102662.91;;;8.43;87.81
59787;BME280;45672;51.612;5.536;2023-05-27T04:06:29;102656.19;;;8.37;88.05
59787;BME280;45672;51.612;5.536;2023-05-27T04:08:56;102651.81;;;8.36;88.07
59787;BME280;45672;51.612;5.536;2023-05-27T04:11:22;102645.75;;;8.34;88.21
59787;BME280;45672;51.612;5.536;2023-05-27T04:13:47;102661.03;;;8.45;88.38
59787;BME280;45672;51.612;5.536;2023-05-27T04:16:14;102655.31;;;8.51;87.76
59787;BME280;45672;51.612;5.536;2023-05-27T04:18:40;102657.88;;;8.53;87.93
59787;BME280;45672;51.612;5.536;2023-05-27T04:21:05;102652.78;;;8.50;88.06
59787;BME280;45672;51.612;5.536;2023-05-27T04:23:31;102641.63;;;8.44;88.36
59787;BME280;45672;51.612;5.536;2023-05-27T04:25:56;102649.66;;;8.57;88.06
59787;BME280;45672;51.612;5.536;2023-05-27T04:28:21;102651.44;;;8.57;87.95
59787;BME280;45672;51.612;5.536;2023-05-27T04:30:47;102651.44;;;8.57;88.12
59787;BME280;45672;51.612;5.536;2023-05-27T04:33:14;102646.91;;;8.59;88.65
59787;BME280;45672;51.612;5.536;2023-05-27T04:35:40;102643.00;;;8.65;88.25
59787;BME280;45672;51.612;5.536;2023-05-27T04:38:10;102647.44;;;8.64;88.44
59787;BME280;45672;51.612;5.536;2023-05-27T04:40:36;102638.63;;;8.63;88.12
59787;BME280;45672;51.612;5.536;2023-05-27T04:43:01;102630.47;;;8.67;88.20
59787;BME280;45672;51.612;5.536;2023-05-27T04:45:26;102634.91;;;8.80;87.62
59787;BME280;45672;51.612;5.536;2023-05-27T04:47:54;102632.25;;;8.80;87.54
59787;BME280;45672;51.612;5.536;2023-05-27T04:50:20;102640.78;;;8.86;87.57
59787;BME280;45672;51.612;5.536;2023-05-27T04:52:46;102639.78;;;8.87;87.67
59787;BME280;45672;51.612;5.536;2023-05-27T04:55:11;102626.41;;;8.88;88.34
59787;BME280;45672;51.612;5.536;2023-05-27T04:57:36;102633.69;;;8.99;87.04
59787;BME280;45672;51.612;5.536;2023-05-27T05:00:06;102632.53;;;9.03;87.19
59787;BME280;45672;51.612;5.536;2023-05-27T05:02:34;102629.34;;;8.98;87.50
59787;BME280;45672;51.612;5.536;2023-05-27T05:05:07;102636.34;;;8.99;87.42
59787;BME280;45672;51.612;5.536;2023-05-27T05:07:36;102630.84;;;9.02;87.37
59787;BME280;45672;51.612;5.536;2023-05-27T05:10:06;102628.84;;;9.06;87.39
59787;BME280;45672;51.612;5.536;2023-05-27T05:12:32;102630.44;;;9.08;86.96
59787;BME280;45672;51.612;5.536;2023-05-27T05:14:57;102632.91;;;9.11;87.56
59787;BME280;45672;51.612;5.536;2023-05-27T05:17:23;102626.34;;;9.17;87.08
59787;BME280;45672;51.612;5.536;2023-05-27T05:19:50;102627.63;;;9.24;87.28
59787;BME280;45672;51.612;5.536;2023-05-27T05:22:16;102630.06;;;9.27;86.79
59787;BME280;45672;51.612;5.536;2023-05-27T05:24:44;102627.41;;;9.27;86.69
59787;BME280;45672;51.612;5.536;2023-05-27T05:27:10;102635.84;;;9.34;86.81
59787;BME280;45672;51.612;5.536;2023-05-27T05:29:35;102625.63;;;9.41;86.51
59787;BME280;45672;51.612;5.536;2023-05-27T05:32:02;102631.28;;;9.49;87.02
59787;BME280;45672;51.612;5.536;2023-05-27T05:34:27;102629.69;;;9.59;86.38
59787;BME280;45672;51.612;5.536;2023-05-27T05:36:52;102633.66;;;9.66;85.97
59787;BME280;45672;51.612;5.536;2023-05-27T05:39:17;102632.38;;;9.72;86.04
59787;BME280;45672;51.612;5.536;2023-05-27T05:41:43;102627.06;;;9.85;85.06
59787;BME280;45672;51.612;5.536;2023-05-27T05:44:08;102621.88;;;9.96;84.50
59787;BME280;45672;51.612;5.536;2023-05-27T05:46:34;102617.69;;;10.05;84.88
59787;BME280;45672;51.612;5.536;2023-05-27T05:48:59;102619.56;;;10.29;84.18
59787;BME280;45672;51.612;5.536;2023-05-27T05:51:24;102616.59;;;10.46;83.50
59787;BME280;45672;51.612;5.536;2023-05-27T05:53:50;102621.00;;;10.59;82.13
59787;BME280;45672;51.612;5.536;2023-05-27T05:56:15;102615.81;;;10.57;82.82
59787;BME280;45672;51.612;5.536;2023-05-27T05:58:40;102603.03;;;10.62;81.63
59787;BME280;45672;51.612;5.536;2023-05-27T06:01:05;102606.22;;;10.67;81.87
59787;BME280;45672;51.612;5.536;2023-05-27T06:03:31;102604.91;;;10.73;81.26
59787;BME280;45672;51.612;5.536;2023-05-27T06:05:56;102608.28;;;10.75;81.91
59787;BME280;45672;51.612;5.536;2023-05-27T06:08:21;102600.25;;;10.88;81.21
59787;BME280;45672;51.612;5.536;2023-05-27T06:10:47;102606.25;;;11.03;80.68
59787;BME280;45672;51.612;5.536;2023-05-27T06:13:12;102606.50;;;11.11;79.87
59787;BME280;45672;51.612;5.536;2023-05-27T06:15:37;102605.00;;;11.20;80.44
59787;BME280;45672;51.612;5.536;2023-05-27T06:18:04;102598.13;;;11.29;79.54
59787;BME280;45672;51.612;5.536;2023-05-27T06:20:29;102602.88;;;11.48;78.63
59787;BME280;45672;51.612;5.536;2023-05-27T06:22:55;102618.41;;;11.54;77.78
59787;BME280;45672;51.612;5.536;2023-05-27T06:25:20;102613.47;;;11.72;78.16
59787;BME280;45672;51.612;5.536;2023-05-27T06:27:45;102611.56;;;11.97;76.64
59787;BME280;45672;51.612;5.536;2023-05-27T06:30:11;102599.09;;;12.20;75.84
59787;BME280;45672;51.612;5.536;2023-05-27T06:32:37;102590.41;;;12.62;74.67
59787;BME280;45672;51.612;5.536;2023-05-27T06:35:02;102599.28;;;12.94;73.27
59787;BME280;45672;51.612;5.536;2023-05-27T06:37:27;102601.09;;;13.26;70.63
59787;BME280;45672;51.612;5.536;2023-05-27T06:39:53;102588.47;;;13.50;69.76
59787;BME280;45672;51.612;5.536;2023-05-27T06:42:18;102594.69;;;14.12;67.90
59787;BME280;45672;51.612;5.536;2023-05-27T06:44:44;102596.41;;;14.73;65.20
59787;BME280;45672;51.612;5.536;2023-05-27T06:47:09;102592.88;;;15.02;64.04
59787;BME280;45672;51.612;5.536;2023-05-27T06:49:36;102588.28;;;15.61;62.70
59787;BME280;45672;51.612;5.536;2023-05-27T06:52:02;102588.69;;;16.42;60.22
59787;BME280;45672;51.612;5.536;2023-05-27T06:54:27;102595.09;;;17.13;56.70
59787;BME280;45672;51.612;5.536;2023-05-27T06:56:53;102584.47;;;17.55;54.61
59787;BME280;45672;51.612;5.536;2023-05-27T06:59:18;102591.56;;;18.25;52.70
59787;BME280;45672;51.612;5.536;2023-05-27T07:01:43;102580.56;;;18.70;50.97
59787;BME280;45672;51.612;5.536;2023-05-27T07:04:08;102574.19;;;18.87;49.72
59787;BME280;45672;51.612;5.536;2023-05-27T07:06:34;102570.50;;;18.88;49.14
59787;BME280;45672;51.612;5.536;2023-05-27T07:09:02;102578.72;;;19.28;47.88
59787;BME280;45672;51.612;5.536;2023-05-27T07:11:28;102585.44;;;19.57;47.46
59787;BME280;45672;51.612;5.536;2023-05-27T07:13:53;102578.84;;;20.15;46.57
59787;BME280;45672;51.612;5.536;2023-05-27T07:16:18;102576.34;;;20.92;43.99
59787;BME280;45672;51.612;5.536;2023-05-27T07:18:44;102579.53;;;21.33;43.02
59787;BME280;45672;51.612;5.536;2023-05-27T07:21:10;102587.94;;;21.39;42.85
59787;BME280;45672;51.612;5.536;2023-05-27T07:23:35;102580.88;;;21.97;41.47
59787;BME280;45672;51.612;5.536;2023-05-27T07:26:01;102589.09;;;22.19;40.60
59787;BME280;45672;51.612;5.536;2023-05-27T07:28:26;102594.38;;;22.27;39.80
59787;BME280;45672;51.612;5.536;2023-05-27T07:30:51;102583.72;;;22.26;39.74
59787;BME280;45672;51.612;5.536;2023-05-27T07:33:17;102592.72;;;22.26;39.39
59787;BME280;45672;51.612;5.536;2023-05-27T07:35:43;102575.66;;;22.32;39.99
59787;BME280;45672;51.612;5.536;2023-05-27T07:38:09;102575.28;;;22.72;39.34
59787;BME280;45672;51.612;5.536;2023-05-27T07:40:35;102567.91;;;23.79;37.76
59787;BME280;45672;51.612;5.536;2023-05-27T07:43:00;102578.13;;;24.05;35.99
59787;BME280;45672;51.612;5.536;2023-05-27T07:45:25;102569.09;;;24.05;35.72
59787;BME280;45672;51.612;5.536;2023-05-27T07:47:51;102564.34;;;24.20;36.19
59787;BME280;45672;51.612;5.536;2023-05-27T07:50:16;102562.19;;;25.11;34.61
59787;BME280;45672;51.612;5.536;2023-05-27T07:52:41;102554.63;;;26.12;32.68
59787;BME280;45672;51.612;5.536;2023-05-27T07:55:07;102550.88;;;25.99;32.61
59787;BME280;45672;51.612;5.536;2023-05-27T07:57:33;102552.63;;;26.32;32.38
59787;BME280;45672;51.612;5.536;2023-05-27T07:59:58;102545.94;;;26.54;31.33
59787;BME280;45672;51.612;5.536;2023-05-27T08:02:24;102549.63;;;26.41;31.80
59787;BME280;45672;51.612;5.536;2023-05-27T08:04:50;102552.97;;;26.75;30.72
59787;BME280;45672;51.612;5.536;2023-05-27T08:07:16;102548.03;;;26.26;31.53
59787;BME280;45672;51.612;5.536;2023-05-27T08:09:41;102545.50;;;27.14;30.21
59787;BME280;45672;51.612;5.536;2023-05-27T08:12:06;102553.00;;;27.62;29.61
59787;BME280;45672;51.612;5.536;2023-05-27T08:14:32;102552.69;;;28.19;28.86
59787;BME280;45672;51.612;5.536;2023-05-27T08:16:57;102541.69;;;28.80;27.46
59787;BME280;45672;51.612;5.536;2023-05-27T08:19:23;102535.38;;;28.92;27.61
59787;BME280;45672;51.612;5.536;2023-05-27T08:21:48;102532.16;;;28.95;27.76
59787;BME280;45672;51.612;5.536;2023-05-27T08:24:13;102543.34;;;29.93;26.16
59787;BME280;45672;51.612;5.536;2023-05-27T08:26:39;102531.56;;;29.92;25.94
59787;BME280;45672;51.612;5.536;2023-05-27T08:29:05;102532.78;;;29.73;26.97
59787;BME280;45672;51.612;5.536;2023-05-27T08:31:30;102518.59;;;29.88;25.82
59787;BME280;45672;51.612;5.536;2023-05-27T08:33:56;102520.47;;;30.62;25.43
59787;BME280;45672;51.612;5.536;2023-05-27T08:36:21;102517.09;;;30.60;25.33
59787;BME280;45672;51.612;5.536;2023-05-27T08:38:47;102514.50;;;30.36;25.86
59787;BME280;45672;51.612;5.536;2023-05-27T08:41:13;102503.97;;;30.45;25.75
59787;BME280;45672;51.612;5.536;2023-05-27T08:43:39;102499.31;;;30.46;24.54
59787;BME280;45672;51.612;5.536;2023-05-27T08:46:05;102498.38;;;30.57;25.49
59787;BME280;45672;51.612;5.536;2023-05-27T08:48:31;102498.81;;;31.22;25.08
59787;BME280;45672;51.612;5.536;2023-05-27T08:50:56;102496.56;;;32.12;23.37
59787;BME280;45672;51.612;5.536;2023-05-27T08:53:22;102494.88;;;32.11;23.65
59787;BME280;45672;51.612;5.536;2023-05-27T08:55:50;102494.81;;;32.06;23.15
59787;BME280;45672;51.612;5.536;2023-05-27T08:58:17;102489.94;;;32.78;22.59
59787;BME280;45672;51.612;5.536;2023-05-27T09:00:43;102480.56;;;32.74;22.04
59787;BME280;45672;51.612;5.536;2023-05-27T09:03:09;102475.31;;;33.26;21.54
59787;BME280;45672;51.612;5.536;2023-05-27T09:05:34;102486.78;;;33.71;21.26
59787;BME280;45672;51.612;5.536;2023-05-27T09:08:00;102482.97;;;33.82;20.64
59787;BME280;45672;51.612;5.536;2023-05-27T09:10:35;102480.25;;;34.28;22.24
59787;BME280;45672;51.612;5.536;2023-05-27T09:13:01;102479.94;;;34.61;19.65
59787;BME280;45672;51.612;5.536;2023-05-27T09:15:27;102479.09;;;34.76;20.05
59787;BME280;45672;51.612;5.536;2023-05-27T09:17:52;102471.09;;;34.74;19.67
59787;BME280;45672;51.612;5.536;2023-05-27T09:20:27;102477.75;;;33.17;21.63
59787;BME280;45672;51.612;5.536;2023-05-27T09:23:00;102467.66;;;32.47;21.76
59787;BME280;45672;51.612;5.536;2023-05-27T09:25:27;102469.66;;;32.95;21.63
59787;BME280;45672;51.612;5.536;2023-05-27T09:27:53;102453.69;;;33.91;20.72
59787;BME280;45672;51.612;5.536;2023-05-27T09:30:22;102457.03;;;34.19;20.46
59787;BME280;45672;51.612;5.536;2023-05-27T09:32:48;102453.72;;;34.22;20.21
59787;BME280;45672;51.612;5.536;2023-05-27T09:35:16;102446.22;;;34.69;19.29
59787;BME280;45672;51.612;5.536;2023-05-27T09:37:41;102457.88;;;33.99;20.41
59787;BME280;45672;51.612;5.536;2023-05-27T09:40:10;102454.84;;;34.36;20.70
59787;BME280;45672;51.612;5.536;2023-05-27T09:42:41;102463.84;;;33.70;21.30
59787;BME280;45672;51.612;5.536;2023-05-27T09:45:09;102452.91;;;31.99;22.21
59787;BME280;45672;51.612;5.536;2023-05-27T09:47:44;102439.03;;;30.95;23.66
59787;BME280;45672;51.612;5.536;2023-05-27T09:50:12;102442.59;;;30.39;24.22
59787;BME280;45672;51.612;5.536;2023-05-27T09:52:39;102436.34;;;30.27;24.08
59787;BME280;45672;51.612;5.536;2023-05-27T09:55:07;102428.03;;;29.88;24.99
59787;BME280;45672;51.612;5.536;2023-05-27T09:57:34;102434.09;;;29.49;25.68
59787;BME280;45672;51.612;5.536;2023-05-27T10:00:02;102428.50;;;28.32;25.65
59787;BME280;45672;51.612;5.536;2023-05-27T10:02:35;102424.56;;;27.18;27.72
59787;BME280;45672;51.612;5.536;2023-05-27T10:05:03;102414.72;;;26.55;29.49
59787;BME280;45672;51.612;5.536;2023-05-27T10:07:36;102413.09;;;26.73;28.82
59787;BME280;45672;51.612;5.536;2023-05-27T10:10:02;102413.38;;;26.64;29.03
59787;BME280;45672;51.612;5.536;2023-05-27T10:12:28;102410.41;;;26.91;28.54
59787;BME280;45672;51.612;5.536;2023-05-27T10:14:55;102411.38;;;26.97;28.27
59787;BME280;45672;51.612;5.536;2023-05-27T10:17:21;102406.47;;;27.85;27.28
59787;BME280;45672;51.612;5.536;2023-05-27T10:20:04;102403.38;;;28.35;27.19
59787;BME280;45672;51.612;5.536;2023-05-27T10:22:38;102397.88;;;29.47;25.67
59787;BME280;45672;51.612;5.536;2023-05-27T10:25:11;102405.50;;;30.54;24.71
59787;BME280;45672;51.612;5.536;2023-05-27T10:27:47;102395.00;;;31.34;23.43
59787;BME280;45672;51.612;5.536;2023-05-27T10:30:14;102407.53;;;32.77;21.19
59787;BME280;45672;51.612;5.536;2023-05-27T10:32:49;102405.03;;;32.75;21.81
59787;BME280;45672;51.612;5.536;2023-05-27T10:35:17;102403.13;;;31.73;21.92
59787;BME280;45672;51.612;5.536;2023-05-27T10:37:43;102397.31;;;29.45;24.04
59787;BME280;45672;51.612;5.536;2023-05-27T10:40:09;102393.78;;;27.60;27.12
59787;BME280;45672;51.612;5.536;2023-05-27T10:42:35;102388.53;;;26.47;27.95
59787;BME280;45672;51.612;5.536;2023-05-27T10:45:08;102380.66;;;25.75;29.65
59787;BME280;45672;51.612;5.536;2023-05-27T10:47:36;102379.56;;;24.99;30.39
59787;BME280;45672;51.612;5.536;2023-05-27T10:50:12;102375.66;;;24.55;31.58
59787;BME280;45672;51.612;5.536;2023-05-27T10:52:39;102369.16;;;24.16;33.10
59787;BME280;45672;51.612;5.536;2023-05-27T10:55:05;102376.69;;;23.87;31.49
59787;BME280;45672;51.612;5.536;2023-05-27T10:57:31;102360.38;;;23.25;32.29
59787;BME280;45672;51.612;5.536;2023-05-27T11:00:01;102368.72;;;23.17;32.68
59787;BME280;45672;51.612;5.536;2023-05-27T11:02:30;102359.84;;;23.08;32.13
59787;BME280;45672;51.612;5.536;2023-05-27T11:05:00;102351.91;;;23.06;32.71
59787;BME280;45672;51.612;5.536;2023-05-27T11:07:25;102343.72;;;22.93;32.59
59787;BME280;45672;51.612;5.536;2023-05-27T11:09:53;102335.13;;;22.89;32.07
59787;BME280;45672;51.612;5.536;2023-05-27T11:12:20;102346.63;;;22.92;33.02
59787;BME280;45672;51.612;5.536;2023-05-27T11:14:49;102332.41;;;22.89;32.50
59787;BME280;45672;51.612;5.536;2023-05-27T11:17:15;102334.41;;;22.74;33.54
59787;BME280;45672;51.612;5.536;2023-05-27T11:19:42;102324.13;;;22.63;30.78
59787;BME280;45672;51.612;5.536;2023-05-27T11:22:08;102326.81;;;22.63;30.73
59787;BME280;45672;51.612;5.536;2023-05-27T11:24:35;102317.13;;;22.47;31.77
59787;BME280;45672;51.612;5.536;2023-05-27T11:27:08;102310.94;;;22.60;32.05
59787;BME280;45672;51.612;5.536;2023-05-27T11:29:34;102311.25;;;22.78;32.70
59787;BME280;45672;51.612;5.536;2023-05-27T11:32:00;102313.41;;;22.89;32.11
59787;BME280;45672;51.612;5.536;2023-05-27T11:34:27;102317.34;;;22.80;31.70
59787;BME280;45672;51.612;5.536;2023-05-27T11:36:52;102301.88;;;22.81;33.62
59787;BME280;45672;51.612;5.536;2023-05-27T11:39:18;102288.97;;;22.83;32.37
59787;BME280;45672;51.612;5.536;2023-05-27T11:41:51;102302.75;;;22.81;32.69
59787;BME280;45672;51.612;5.536;2023-05-27T11:44:17;102297.94;;;22.48;31.94
59787;BME280;45672;51.612;5.536;2023-05-27T11:46:45;102286.63;;;22.38;31.20
59787;BME280;45672;51.612;5.536;2023-05-27T11:49:16;102286.19;;;22.34;32.86
59787;BME280;45672;51.612;5.536;2023-05-27T11:51:44;102287.06;;;22.42;32.09
59787;BME280;45672;51.612;5.536;2023-05-27T11:56:45;102272.25;;;22.37;32.06
59787;BME280;45672;51.612;5.536;2023-05-27T11:59:11;102266.59;;;22.11;32.79
59787;BME280;45672;51.612;5.536;2023-05-27T12:01:36;102264.91;;;22.10;32.71
59787;BME280;45672;51.612;5.536;2023-05-27T12:04:01;102262.06;;;22.18;32.58
59787;BME280;45672;51.612;5.536;2023-05-27T12:06:27;102261.44;;;22.23;32.82
59787;BME280;45672;51.612;5.536;2023-05-27T12:08:52;102258.94;;;22.21;33.01
59787;BME280;45672;51.612;5.536;2023-05-27T12:11:17;102255.97;;;22.16;31.85
59787;BME280;45672;51.612;5.536;2023-05-27T12:13:43;102251.50;;;22.01;32.15
59787;BME280;45672;51.612;5.536;2023-05-27T12:16:08;102242.28;;;21.96;32.89
59787;BME280;45672;51.612;5.536;2023-05-27T12:18:34;102241.16;;;21.83;34.13
59787;BME280;45672;51.612;5.536;2023-05-27T12:20:59;102241.47;;;21.95;32.16
59787;BME280;45672;51.612;5.536;2023-05-27T12:23:25;102249.34;;;21.90;32.11
59787;BME280;45672;51.612;5.536;2023-05-27T12:25:50;102241.00;;;21.92;33.11
59787;BME280;45672;51.612;5.536;2023-05-27T12:28:15;102232.78;;;22.07;32.63
59787;BME280;45672;51.612;5.536;2023-05-27T12:30:41;102224.19;;;22.03;32.24
59787;BME280;45672;51.612;5.536;2023-05-27T12:33:06;102228.72;;;21.96;31.16
59787;BME280;45672;51.612;5.536;2023-05-27T12:35:32;102211.94;;;22.07;32.78
59787;BME280;45672;51.612;5.536;2023-05-27T12:37:59;102226.41;;;22.21;32.67
59787;BME280;45672;51.612;5.536;2023-05-27T12:40:25;102227.03;;;22.16;33.15
59787;BME280;45672;51.612;5.536;2023-05-27T12:42:50;102214.91;;;22.12;33.01
59787;BME280;45672;51.612;5.536;2023-05-27T12:45:15;102219.56;;;22.25;33.36
59787;BME280;45672;51.612;5.536;2023-05-27T12:47:41;102216.66;;;22.27;31.71
59787;BME280;45672;51.612;5.536;2023-05-27T12:50:07;102201.97;;;22.14;32.01